createdAt,value
2018-04-13T00:02:02.273Z,31.63
2018-04-13T00:04:29.807Z,32.80
2018-04-13T00:06:57.357Z,34.13
2018-04-13T00:09:25.705Z,32.23
2018-04-13T00:11:59.162Z,34.47
2018-04-13T00:14:27.486Z,32.20
2018-04-13T00:16:55.096Z,33.77
2018-04-13T00:19:22.674Z,34.90
2018-04-13T00:21:55.998Z,34.40
2018-04-13T00:24:24.304Z,32.43
2018-04-13T00:26:51.807Z,32.77
2018-04-13T00:29:31.181Z,34.30
2018-04-13T00:31:58.884Z,32.40
2018-04-13T00:34:32.773Z,33.03
2018-04-13T00:37:00.271Z,33.47
2018-04-13T00:39:39.634Z,31.77
2018-04-13T00:42:07.948Z,32.80
2018-04-13T00:44:35.452Z,32.57
2018-04-13T00:47:02.965Z,33.30
2018-04-13T00:49:37.295Z,32.00
2018-04-13T00:52:11.233Z,32.93
2018-04-13T00:54:45.553Z,32.80
2018-04-13T00:57:18.982Z,31.90
2018-04-13T00:59:46.573Z,31.47
2018-04-13T01:02:14.101Z,32.00
2018-04-13T01:04:42.419Z,30.33
2018-04-13T01:07:09.972Z,31.47
2018-04-13T01:09:37.532Z,30.00
2018-04-13T01:12:05.853Z,33.50
2018-04-13T01:14:33.403Z,31.73
2018-04-13T01:17:00.959Z,31.70
2018-04-13T01:19:29.240Z,34.33
2018-04-13T01:21:56.733Z,32.50
2018-04-13T01:24:24.294Z,33.17
2018-04-13T01:26:51.783Z,32.63
2018-04-13T01:29:19.332Z,31.13
2018-04-13T01:31:53.411Z,32.13
2018-04-13T01:34:21.131Z,33.00
2018-04-13T01:36:49.430Z,33.60
2018-04-13T01:39:16.960Z,33.33
2018-04-13T01:41:44.467Z,33.30
2018-04-13T01:44:18.711Z,32.50
2018-04-13T01:46:52.142Z,33.70
2018-04-13T01:49:19.707Z,33.93
2018-04-13T01:51:53.269Z,32.10
2018-04-13T01:54:21.601Z,32.57
2018-04-13T01:56:49.187Z,32.97
2018-04-13T01:59:16.771Z,34.77
2018-04-13T02:01:44.262Z,32.23
2018-04-13T02:04:11.826Z,32.50
2018-04-13T02:06:45.048Z,35.30
2018-04-13T02:09:18.313Z,31.90
2018-04-13T02:11:45.848Z,31.40
2018-04-13T02:14:14.142Z,31.50
2018-04-13T02:16:41.708Z,31.40
2018-04-13T02:19:10.000Z,32.70
2018-04-13T02:21:37.609Z,33.37
2018-04-13T02:24:05.200Z,32.90
2018-04-13T02:26:32.883Z,30.43
2018-04-13T02:29:06.026Z,30.77
2018-04-13T02:31:33.585Z,29.20
2018-04-13T02:34:01.841Z,30.77
2018-04-13T02:36:35.197Z,30.53
2018-04-13T02:39:02.704Z,32.33
2018-04-13T02:41:30.220Z,32.43
2018-04-13T02:44:04.163Z,31.63
2018-04-13T02:46:31.657Z,32.77
2018-04-13T02:48:59.174Z,31.97
2018-04-13T02:51:27.480Z,30.40
2018-04-13T02:53:55.167Z,29.73
2018-04-13T02:56:28.678Z,31.60
2018-04-13T02:58:56.209Z,30.20
2018-04-13T03:01:23.802Z,31.60
2018-04-13T03:03:51.329Z,30.87
2018-04-13T03:06:18.868Z,30.27
2018-04-13T03:08:46.391Z,31.27
2018-04-13T03:11:13.944Z,31.67
2018-04-13T03:13:41.512Z,31.93
2018-04-13T03:16:09.805Z,29.60
2018-04-13T03:18:37.305Z,30.73
2018-04-13T03:21:17.307Z,28.83
2018-04-13T03:23:50.841Z,29.30
2018-04-13T03:26:18.441Z,30.97
2018-04-13T03:28:45.979Z,30.13
2018-04-13T03:31:13.501Z,30.90
2018-04-13T03:33:41.816Z,30.33
2018-04-13T03:36:09.310Z,29.90
2018-04-13T03:38:36.839Z,31.10
2018-04-13T03:41:10.229Z,27.63
2018-04-13T03:43:38.633Z,31.00
2018-04-13T03:46:06.928Z,29.87
2018-04-13T03:48:34.431Z,30.17
2018-04-13T03:51:01.954Z,29.60
2018-04-13T03:53:30.218Z,29.30
2018-04-13T03:55:57.774Z,29.30
2018-04-13T03:58:25.272Z,30.10
2018-04-13T04:00:52.806Z,27.40
2018-04-13T04:03:20.307Z,27.37
2018-04-13T04:05:47.918Z,28.13
2018-04-13T04:08:21.415Z,28.30
2018-04-13T04:10:49.716Z,27.33
2018-04-13T04:13:17.985Z,29.50
2018-04-13T04:15:51.405Z,27.27
2018-04-13T04:18:19.700Z,27.87
2018-04-13T04:20:59.191Z,28.23
2018-04-13T04:23:38.742Z,30.13
2018-04-13T04:26:21.868Z,29.53
2018-04-13T04:28:49.631Z,27.30
2018-04-13T04:31:17.362Z,27.90
2018-04-13T04:33:44.910Z,29.17
2018-04-13T04:36:12.487Z,30.00
2018-04-13T04:38:40.106Z,28.90
2018-04-13T04:41:08.387Z,30.97
2018-04-13T04:43:36.685Z,32.00
2018-04-13T04:46:11.034Z,31.33
2018-04-13T04:48:38.573Z,31.60
2018-04-13T04:51:06.098Z,18.27
2018-04-13T04:53:33.644Z,23.23
2018-04-13T04:56:07.176Z,28.60
2018-04-13T04:58:34.684Z,26.50
2018-04-13T05:01:07.853Z,29.20
2018-04-13T05:03:35.372Z,26.57
2018-04-13T05:06:03.752Z,24.20
2018-04-13T05:08:37.183Z,27.10
2018-04-13T05:11:05.580Z,26.53
2018-04-13T05:13:33.852Z,26.33
2018-04-13T05:16:01.559Z,27.60
2018-04-13T05:18:35.018Z,29.37
2018-04-13T05:21:08.120Z,27.77
2018-04-13T05:23:35.597Z,28.97
2018-04-13T05:26:03.119Z,30.30
2018-04-13T05:28:30.638Z,28.13
2018-04-13T05:31:04.011Z,28.43
2018-04-13T05:33:31.529Z,28.30
2018-04-13T05:35:59.102Z,28.67
2018-04-13T05:38:27.386Z,28.10
2018-04-13T05:41:06.648Z,28.10
2018-04-13T05:43:40.751Z,27.40
2018-04-13T05:46:08.281Z,28.37
2018-04-13T05:48:35.950Z,27.53
2018-04-13T05:51:09.959Z,29.83
2018-04-13T05:53:37.518Z,26.23
2018-04-13T05:56:05.076Z,27.50
2018-04-13T05:58:33.504Z,27.83
2018-04-13T06:01:01.045Z,29.03
2018-04-13T06:03:29.337Z,27.43
2018-04-13T06:06:08.722Z,27.37
2018-04-13T06:08:36.971Z,27.53
2018-04-13T06:11:05.274Z,29.17
2018-04-13T06:13:33.027Z,26.50
2018-04-13T06:16:00.533Z,25.80
2018-04-13T06:18:28.028Z,25.53
2018-04-13T06:21:01.510Z,24.63
2018-04-13T06:23:29.016Z,24.40
2018-04-13T06:25:56.542Z,25.10
2018-04-13T06:28:30.098Z,26.00
2018-04-13T06:30:57.661Z,24.70
2018-04-13T06:33:25.149Z,24.30
2018-04-13T06:35:52.673Z,24.23
2018-04-13T06:38:20.205Z,23.00
2018-04-13T06:40:47.717Z,23.40
2018-04-13T06:43:26.948Z,23.10
2018-04-13T06:46:00.767Z,24.40
2018-04-13T06:48:28.330Z,21.73
2018-04-13T06:51:02.430Z,22.60
2018-04-13T06:53:29.944Z,22.40
2018-04-13T06:55:57.520Z,22.07
2018-04-13T06:58:25.038Z,23.03
2018-04-13T07:00:52.647Z,22.77
2018-04-13T07:03:26.165Z,23.47
2018-04-13T07:05:53.654Z,24.57
2018-04-13T07:08:21.282Z,26.30
2018-04-13T07:10:54.500Z,23.50
2018-04-13T07:13:28.725Z,25.70
2018-04-13T07:16:02.986Z,24.63
2018-04-13T07:18:30.522Z,25.77
2018-04-13T07:20:58.872Z,25.53
2018-04-13T07:23:26.511Z,26.37
2018-04-13T07:25:54.024Z,25.97
2018-04-13T07:28:21.552Z,25.93
2018-04-13T07:30:54.944Z,26.07
2018-04-13T07:33:23.219Z,24.77
2018-04-13T07:35:50.728Z,24.00
2018-04-13T07:38:18.249Z,25.50
2018-04-13T07:40:51.579Z,25.50
2018-04-13T07:43:19.117Z,26.17
2018-04-13T07:45:46.648Z,27.03
2018-04-13T07:48:19.817Z,26.37
2018-04-13T07:50:48.095Z,26.93
2018-04-13T07:53:15.652Z,27.67
2018-04-13T07:55:43.263Z,27.10
2018-04-13T07:58:11.655Z,26.50
2018-04-13T08:00:39.319Z,28.90
2018-04-13T08:03:07.590Z,28.97
2018-04-13T08:05:35.134Z,31.13
2018-04-13T08:08:02.652Z,28.83
2018-04-13T08:10:30.969Z,30.40
2018-04-13T08:13:04.025Z,30.97
2018-04-13T08:15:38.240Z,30.63
2018-04-13T08:18:05.761Z,30.57
2018-04-13T08:20:39.342Z,30.80
2018-04-13T08:23:13.589Z,29.93
2018-04-13T08:25:41.897Z,32.30
2018-04-13T08:28:09.396Z,32.20
2018-04-13T08:30:36.939Z,32.47
2018-04-13T08:33:22.193Z,30.10
2018-04-13T08:35:50.499Z,31.03
2018-04-13T08:38:17.987Z,31.60
2018-04-13T08:40:45.549Z,33.73
2018-04-13T08:43:13.117Z,32.10
2018-04-13T08:45:40.741Z,33.80
2018-04-13T08:48:08.341Z,33.63
2018-04-13T08:50:42.470Z,29.00
2018-04-13T08:53:10.053Z,30.70
2018-04-13T08:55:37.564Z,32.13
2018-04-13T08:58:05.204Z,30.13
2018-04-13T09:00:32.749Z,29.77
2018-04-13T09:03:06.760Z,30.00
2018-04-13T09:05:34.343Z,30.00
2018-04-13T09:08:08.561Z,29.67
2018-04-13T09:10:36.879Z,27.80
2018-04-13T09:13:10.358Z,28.03
2018-04-13T09:15:38.632Z,26.40
2018-04-13T09:18:18.116Z,28.37
2018-04-13T09:20:46.420Z,30.30
2018-04-13T09:23:20.562Z,29.70
2018-04-13T09:25:48.083Z,25.93
2018-04-13T09:28:15.616Z,27.63
2018-04-13T09:30:43.145Z,27.33
2018-04-13T09:33:11.455Z,25.53
2018-04-13T09:35:44.616Z,25.40
2018-04-13T09:38:12.167Z,25.53
2018-04-13T09:40:39.721Z,26.00
2018-04-13T09:43:07.246Z,24.57
2018-04-13T09:45:41.221Z,24.70
2018-04-13T09:48:08.916Z,24.57
2018-04-13T09:50:36.477Z,23.50
2018-04-13T09:53:04.012Z,23.80
2018-04-13T09:55:31.546Z,22.17
2018-04-13T09:57:59.101Z,25.20
2018-04-13T10:00:30.575Z,22.80
2018-04-13T10:03:18.966Z,22.40
2018-04-13T10:05:53.405Z,22.60
2018-04-13T10:08:26.903Z,23.20
2018-04-13T10:10:54.806Z,23.47
2018-04-13T10:13:22.447Z,23.00
2018-04-13T10:15:50.721Z,23.67
2018-04-13T10:18:18.322Z,24.50
2018-04-13T10:20:52.505Z,24.67
2018-04-13T10:23:20.062Z,25.80
2018-04-13T10:25:47.594Z,26.23
2018-04-13T10:28:15.862Z,26.27
2018-04-13T10:30:49.975Z,29.00
2018-04-13T10:33:23.485Z,28.60
2018-04-13T10:35:51.035Z,30.00
2018-04-13T10:38:18.590Z,29.40
2018-04-13T10:40:46.175Z,30.03
2018-04-13T10:43:13.728Z,29.60
2018-04-13T10:45:41.222Z,31.03
2018-04-13T10:48:09.016Z,31.20
2018-04-13T10:50:36.567Z,29.83
2018-04-13T10:53:04.123Z,32.10
2018-04-13T10:55:43.227Z,33.07
2018-04-13T10:58:17.587Z,35.03
2018-04-13T11:00:45.116Z,35.20
2018-04-13T11:03:19.146Z,33.30
2018-04-13T11:05:46.652Z,34.37
2018-04-13T11:08:14.185Z,34.87
2018-04-13T11:10:53.491Z,34.93
2018-04-13T11:13:21.004Z,33.13
2018-04-13T11:15:48.568Z,33.37
2018-04-13T11:18:24.259Z,34.90
2018-04-13T11:20:53.145Z,30.50
2018-04-13T11:23:20.709Z,31.17
2018-04-13T11:25:48.259Z,29.30
2018-04-13T11:28:21.486Z,29.80
2018-04-13T11:30:48.998Z,28.00
2018-04-13T11:33:16.705Z,25.43
2018-04-13T11:35:50.144Z,28.73
2018-04-13T11:38:23.736Z,27.40
2018-04-13T11:40:51.255Z,26.47
2018-04-13T11:43:18.793Z,25.87
2018-04-13T11:45:46.300Z,23.90
2018-04-13T11:48:13.838Z,24.20
2018-04-13T11:50:41.371Z,21.90
2018-04-13T11:53:20.460Z,19.60
2018-04-13T11:55:48.766Z,19.43
2018-04-13T11:58:22.156Z,18.70
2018-04-13T12:01:02.222Z,14.97
2018-04-13T12:03:30.726Z,15.37
2018-04-13T12:05:59.030Z,16.33
2018-04-13T12:08:26.601Z,15.53
2018-04-13T12:10:54.163Z,13.60
2018-04-13T12:13:22.453Z,15.03
2018-04-13T12:15:50.703Z,14.20
2018-04-13T12:18:18.210Z,14.27
2018-04-13T12:20:46.494Z,14.93
2018-04-13T12:23:14.767Z,14.10
2018-04-13T12:25:42.309Z,12.87
2018-04-13T12:28:09.920Z,13.13
2018-04-13T12:30:38.201Z,12.53
2018-04-13T12:33:05.788Z,13.33
2018-04-13T12:35:34.080Z,13.03
2018-04-13T12:38:02.358Z,12.17
2018-04-13T12:40:30.725Z,12.33
2018-04-13T12:42:58.243Z,11.20
2018-04-13T12:45:25.758Z,12.33
2018-04-13T12:47:53.296Z,11.40
2018-04-13T12:50:20.787Z,13.13
2018-04-13T12:52:48.416Z,11.80
2018-04-13T12:55:16.772Z,11.37
2018-04-13T12:57:44.384Z,10.33
2018-04-13T13:00:12.680Z,10.30
2018-04-13T13:02:40.185Z,11.47
2018-04-13T13:05:07.790Z,10.97
2018-04-13T13:07:35.400Z,10.73
2018-04-13T13:10:02.978Z,10.50
2018-04-13T13:12:30.536Z,10.17
2018-04-13T13:14:58.072Z,9.63
2018-04-13T13:17:25.696Z,9.60
2018-04-13T13:19:53.225Z,9.40
2018-04-13T13:22:20.761Z,8.53
2018-04-13T13:24:48.489Z,9.30
2018-04-13T13:27:16.830Z,8.90
2018-04-13T13:29:44.308Z,8.60
2018-04-13T13:32:11.893Z,8.63
2018-04-13T13:34:39.436Z,8.50
2018-04-13T13:37:06.942Z,9.07
2018-04-13T13:39:34.467Z,8.03
2018-04-13T13:42:01.989Z,7.87
2018-04-13T13:44:30.297Z,7.30
2018-04-13T13:46:57.883Z,7.20
2018-04-13T13:49:25.407Z,7.40
2018-04-13T13:51:53.000Z,7.53
2018-04-13T13:54:21.266Z,6.70
2018-04-13T13:56:48.801Z,7.10
2018-04-13T13:59:16.344Z,6.00
2018-04-13T14:01:43.967Z,6.60
2018-04-13T14:04:11.469Z,6.57
2018-04-13T14:06:39.768Z,6.17
2018-04-13T14:09:07.277Z,6.80
2018-04-13T14:11:34.851Z,5.80
2018-04-13T14:14:02.362Z,6.40
2018-04-13T14:16:30.652Z,6.63
2018-04-13T14:18:58.962Z,5.47
2018-04-13T14:21:26.699Z,5.40
2018-04-13T14:23:54.197Z,6.27
2018-04-13T14:26:22.509Z,6.20
2018-04-13T14:28:50.082Z,5.30
2018-04-13T14:31:17.640Z,5.40
2018-04-13T14:33:45.220Z,5.60
2018-04-13T14:36:12.747Z,5.97
2018-04-13T14:38:45.592Z,4.90
2018-04-13T14:41:13.127Z,5.10
2018-04-13T14:43:42.541Z,4.43
2018-04-13T14:46:10.179Z,5.40
2018-04-13T14:48:37.698Z,4.97
2018-04-13T14:51:06.377Z,4.50
2018-04-13T14:53:33.976Z,5.30
2018-04-13T14:56:01.519Z,4.43
2018-04-13T14:58:29.822Z,4.90
2018-04-13T15:00:58.134Z,4.87
2018-04-13T15:03:25.713Z,5.47
2018-04-13T15:05:53.234Z,4.63
2018-04-13T15:08:20.742Z,4.43
2018-04-13T15:10:48.278Z,4.53
2018-04-13T15:13:16.579Z,4.33
2018-04-13T15:15:44.104Z,4.20
2018-04-13T15:18:11.837Z,5.40
2018-04-13T15:20:39.352Z,4.50
2018-04-13T15:23:06.870Z,3.83
2018-04-13T15:25:35.171Z,3.97
2018-04-13T15:28:04.188Z,4.17
2018-04-13T15:30:31.703Z,5.10
2018-04-13T15:32:59.250Z,3.73
2018-04-13T15:35:26.908Z,4.13
2018-04-13T15:37:54.411Z,4.90
2018-04-13T15:40:22.094Z,3.20
2018-04-13T15:42:49.599Z,2.90
2018-04-13T15:45:17.960Z,3.03
2018-04-13T15:47:45.500Z,3.43
2018-04-13T15:50:13.116Z,3.93
2018-04-13T15:52:40.723Z,3.47
2018-04-13T15:55:08.295Z,3.73
2018-04-13T15:57:36.076Z,3.87
2018-04-13T16:00:03.619Z,3.67
2018-04-13T16:02:31.928Z,4.00
2018-04-13T16:05:00.189Z,3.30
2018-04-13T16:07:27.894Z,3.23
2018-04-13T16:09:55.441Z,3.80
2018-04-13T16:12:23.721Z,3.03
2018-04-13T16:14:52.049Z,3.40
2018-04-13T16:17:19.695Z,3.03
2018-04-13T16:19:48.077Z,3.27
2018-04-13T16:22:16.437Z,3.23
2018-04-13T16:24:44.014Z,3.40
2018-04-13T16:27:11.590Z,3.40
2018-04-13T16:29:39.099Z,3.40
2018-04-13T16:32:07.360Z,3.90
2018-04-13T16:34:34.907Z,5.10
2018-04-13T16:37:02.485Z,5.33
2018-04-13T16:39:30.138Z,4.50
2018-04-13T16:41:58.214Z,7.50
2018-04-13T16:44:25.952Z,5.53
2018-04-13T16:46:53.473Z,5.87
2018-04-13T16:49:21.022Z,5.27
2018-04-13T16:51:48.565Z,5.80
2018-04-13T16:54:16.067Z,5.80
2018-04-13T16:56:43.608Z,5.83
2018-04-13T16:59:11.108Z,7.10
2018-04-13T17:01:38.695Z,7.93
2018-04-13T17:04:06.335Z,7.20
2018-04-13T17:06:34.719Z,8.90
2018-04-13T17:09:03.037Z,7.57
2018-04-13T17:11:30.647Z,7.07
2018-04-13T17:13:58.277Z,7.07
2018-04-13T17:16:25.825Z,16.23
2018-04-13T17:18:53.428Z,8.40
2018-04-13T17:21:20.974Z,9.30
2018-04-13T17:23:49.257Z,9.80
2018-04-13T17:26:17.557Z,11.77
2018-04-13T17:28:45.840Z,8.80
2018-04-13T17:31:14.234Z,7.43
2018-04-13T17:33:42.633Z,7.43
2018-04-13T17:36:10.935Z,7.87
2018-04-13T17:38:38.519Z,7.80
2018-04-13T17:41:06.082Z,7.43
2018-04-13T17:43:33.749Z,8.27
2018-04-13T17:46:01.317Z,8.27
2018-04-13T17:48:28.967Z,7.63
2018-04-13T17:50:57.329Z,7.10
2018-04-13T17:53:24.834Z,8.70
2018-04-13T17:55:53.146Z,7.50
2018-04-13T17:58:20.725Z,6.60
2018-04-13T18:00:48.258Z,5.83
2018-04-13T18:03:16.581Z,6.67
2018-04-13T18:05:44.447Z,7.00
2018-04-13T18:08:12.019Z,6.60
2018-04-13T18:10:39.628Z,6.63
2018-04-13T18:13:07.913Z,7.80
2018-04-13T18:15:35.422Z,8.13
2018-04-13T18:18:02.937Z,9.80
2018-04-13T18:20:30.472Z,8.50
2018-04-13T18:22:58.776Z,9.63
2018-04-13T18:25:27.251Z,10.53
2018-04-13T18:27:55.549Z,9.43
2018-04-13T18:30:23.981Z,9.60
2018-04-13T18:32:51.671Z,8.33
2018-04-13T18:35:19.220Z,8.03
2018-04-13T18:37:46.773Z,8.57
2018-04-13T18:40:14.366Z,9.80
2018-04-13T18:42:41.967Z,9.40
2018-04-13T18:45:09.527Z,10.50
2018-04-13T18:47:37.040Z,11.60
2018-04-13T18:50:05.371Z,16.37
2018-04-13T18:52:32.862Z,22.70
2018-04-13T18:55:00.405Z,11.83
2018-04-13T18:57:27.953Z,11.20
2018-04-13T18:59:56.383Z,15.27
2018-04-13T19:02:23.902Z,18.87
2018-04-13T19:04:52.166Z,19.10
2018-04-13T19:07:19.692Z,14.13
2018-04-13T19:09:47.207Z,26.67
2018-04-13T19:12:14.804Z,15.67
2018-04-13T19:14:43.118Z,9.90
2018-04-13T19:17:11.453Z,11.20
2018-04-13T19:19:39.054Z,13.13
2018-04-13T19:22:06.653Z,9.30
2018-04-13T19:24:34.184Z,12.90
2018-04-13T19:27:02.478Z,22.60
2018-04-13T19:29:30.793Z,8.70
2018-04-13T19:31:58.344Z,8.87
2018-04-13T19:34:26.620Z,10.63
2018-04-13T19:36:54.158Z,9.50
2018-04-13T19:39:21.723Z,11.60
2018-04-13T19:41:49.707Z,11.40
2018-04-13T19:44:17.277Z,11.70
2018-04-13T19:46:44.932Z,12.83
2018-04-13T19:49:12.488Z,13.47
2018-04-13T19:51:40.055Z,11.43
2018-04-13T19:54:07.564Z,14.23
2018-04-13T19:56:35.112Z,11.43
2018-04-13T19:59:02.632Z,14.10
2018-04-13T20:01:30.217Z,11.40
2018-04-13T20:03:57.878Z,12.53
2018-04-13T20:06:25.514Z,11.90
2018-04-13T20:08:53.275Z,10.53
2018-04-13T20:11:21.056Z,13.00
2018-04-13T20:13:48.651Z,13.37
2018-04-13T20:16:20.202Z,11.30
2018-04-13T20:18:47.732Z,12.70
2018-04-13T20:21:15.310Z,12.33
2018-04-13T20:23:43.785Z,10.87
2018-04-13T20:26:11.297Z,14.03
2018-04-13T20:28:39.057Z,12.60
2018-04-13T20:31:07.506Z,13.70
2018-04-13T20:33:35.034Z,12.50
2018-04-13T20:36:02.657Z,13.63
2018-04-13T20:38:30.381Z,13.33
2018-04-13T20:40:57.892Z,12.60
2018-04-13T20:43:25.597Z,13.70
2018-04-13T20:45:54.013Z,13.50
2018-04-13T20:48:21.504Z,13.60
2018-04-13T20:50:49.076Z,13.87
2018-04-13T20:53:16.586Z,14.77
2018-04-13T20:55:44.111Z,17.90
2018-04-13T20:58:11.666Z,14.83
2018-04-13T21:00:39.218Z,14.07
2018-04-13T21:03:07.515Z,17.90
2018-04-13T21:05:35.805Z,15.10
2018-04-13T21:08:04.195Z,13.23
2018-04-13T21:10:32.571Z,12.50
2018-04-13T21:13:00.136Z,12.27
2018-04-13T21:15:27.653Z,15.07
2018-04-13T21:17:55.142Z,13.40
2018-04-13T21:20:22.769Z,9.77
2018-04-13T21:22:51.121Z,10.20
2018-04-13T21:25:18.716Z,11.70
2018-04-13T21:27:46.208Z,14.13
2018-04-13T21:30:14.483Z,16.87
2018-04-13T21:32:42.769Z,14.10
2018-04-13T21:35:10.319Z,13.30
2018-04-13T21:37:38.755Z,14.17
2018-04-13T21:40:06.312Z,13.23
2018-04-13T21:42:34.591Z,13.80
2018-04-13T21:45:02.181Z,10.53
2018-04-13T21:47:30.511Z,10.37
2018-04-13T21:50:00.883Z,10.60
2018-04-13T21:52:31.455Z,8.97
2018-04-13T21:55:05.865Z,9.40
2018-04-13T21:57:33.391Z,9.27
2018-04-13T22:00:00.888Z,6.93
2018-04-13T22:02:28.405Z,6.20
2018-04-13T22:04:55.901Z,7.07
2018-04-13T22:07:23.427Z,5.10
2018-04-13T22:09:50.932Z,5.47
2018-04-13T22:12:30.378Z,5.70
2018-04-13T22:14:57.969Z,4.40
2018-04-13T22:17:25.506Z,3.97
2018-04-13T22:19:53.011Z,3.90
2018-04-13T22:22:20.640Z,4.00
2018-04-13T22:24:49.027Z,3.80
2018-04-13T22:27:17.295Z,3.90
2018-04-13T22:29:44.783Z,4.20
2018-04-13T22:32:13.076Z,3.40
2018-04-13T22:34:41.468Z,3.83
2018-04-13T22:37:09.759Z,3.90
2018-04-13T22:39:38.021Z,4.17
2018-04-13T22:42:05.613Z,3.53
2018-04-13T22:44:33.387Z,4.23
2018-04-13T22:47:01.801Z,4.00
2018-04-13T22:49:29.330Z,4.30
2018-04-13T22:51:56.858Z,3.80
2018-04-13T22:54:24.377Z,4.37
2018-04-13T22:56:51.860Z,4.10
2018-04-13T22:59:20.168Z,4.63
2018-04-13T23:01:47.680Z,5.07
2018-04-13T23:04:15.283Z,5.00
2018-04-13T23:06:42.804Z,4.40
2018-04-13T23:09:10.406Z,4.70
2018-04-13T23:11:38.034Z,4.87
2018-04-13T23:14:05.535Z,5.00
2018-04-13T23:16:34.467Z,4.40
2018-04-13T23:19:02.759Z,4.90
2018-04-13T23:21:30.245Z,5.27
2018-04-13T23:23:57.749Z,5.40
2018-04-13T23:26:25.301Z,5.03
2018-04-13T23:28:53.716Z,4.57
2018-04-13T23:31:21.225Z,4.00
2018-04-13T23:33:48.715Z,4.53
2018-04-13T23:36:17.308Z,4.27
2018-04-13T23:38:45.586Z,4.50
2018-04-13T23:41:13.077Z,4.97
2018-04-13T23:43:41.370Z,5.33
2018-04-13T23:46:08.927Z,4.90
2018-04-13T23:48:37.405Z,5.40
2018-04-13T23:51:04.885Z,5.30
2018-04-13T23:53:33.144Z,4.87
2018-04-13T23:56:00.660Z,5.20
2018-04-13T23:58:28.175Z,4.40
